Keensburg, Illinois
Current Conditions -  °F | °C
As of 3:55 PM on Monday 24 Nov 2014 (Local Time) from KAJG Reporting Station
Overcast Overcast  
Wind Chill: 39°   Ceiling: 5500
Heat Index: 45°   Visibility: 10mi
Dew Point: 32°   Wind: 12mph
Humidity: 61%   Direction: 270°W
Pressure: 29.81"   Gusts: NA
Location:  38.35°N, 87.87°W
Report Text: KAJG 242155Z AUTO 27010KT 10SM SCT047 OVC055 07/00 A2981 RMK AO2
Loading
Personal Weather Stations






























Interactive Weather Map New forecast layout! Learn more

10-Day Weather Forecast

Advertisements
Track Severe Weather on mobile